Time;durP1;ratioP1;P1;durP2;ratioP2;P2;SDS_P1;SDS_P2;PMS_P1;PMS_P2;Temp;Humidity;BMP_temperature;BMP_pressure;BME280_temperature;BME280_humidity;BME280_pressure;Samples;Min_cycle;Max_cycle;Signal;HPM_P1;HPM_P2
2024/01/30 06:02:46;;;;;;;67.50;30.00;;;;;;;-5.06;100.00;102536.75;113012;1249;23233;-46
2024/01/30 06:05:13;;;;;;;64.00;28.10;;;;;;;-5.01;100.00;102536.06;112902;1240;22356;-47
2024/01/30 06:07:40;;;;;;;79.10;35.30;;;;;;;-4.98;100.00;102533.39;112955;1237;22464;-52
2024/01/30 06:10:08;;;;;;;86.10;38.60;;;;;;;-4.90;100.00;102536.00;112955;1239;22337;-52
2024/01/30 06:12:35;;;;;;;77.30;34.30;;;;;;;-4.82;100.00;102535.79;112894;1238;22910;-53
2024/01/30 06:15:03;;;;;;;68.20;32.40;;;;;;;-4.80;100.00;102531.70;112840;1249;22327;-49
2024/01/30 06:17:29;;;;;;;77.20;38.50;;;;;;;-4.80;100.00;102526.95;112835;1246;22348;-47
2024/01/30 06:19:56;;;;;;;76.90;37.60;;;;;;;-4.80;100.00;102528.42;112903;1237;23205;-47
2024/01/30 06:22:23;;;;;;;75.00;37.20;;;;;;;-4.81;100.00;102517.46;112841;1238;22292;-51
2024/01/30 06:24:53;;;;;;;69.40;35.30;;;;;;;-4.79;100.00;102516.64;112623;1239;22486;-46
2024/01/30 06:27:24;;;;;;;72.70;36.40;;;;;;;-4.71;100.00;102516.57;112823;1242;22746;-52
2024/01/30 06:29:53;;;;;;;64.70;33.80;;;;;;;-4.61;100.00;102517.17;112450;1249;22471;-46
2024/01/30 06:32:21;;;;;;;73.90;33.60;;;;;;;-4.57;100.00;102512.33;112610;1249;22369;-46
2024/01/30 06:39:16;;;;;;;69.00;30.50;;;;;;;-4.48;100.00;102515.73;112810;1247;22997;-47
2024/01/30 06:42:42;;;;;;;78.80;34.20;;;;;;;-4.36;100.00;102513.46;112720;1245;22420;-51
2024/01/30 06:46:10;;;;;;;76.20;33.10;;;;;;;-4.16;100.00;102513.63;112656;1249;22261;-52
2024/01/30 06:48:49;;;;;;;88.40;39.10;;;;;;;-4.01;100.00;102513.65;112665;1249;22366;-47
2024/01/30 06:51:47;;;;;;;83.70;40.80;;;;;;;-3.89;100.00;102513.59;112698;1244;22358;-51
2024/01/30 06:54:20;;;;;;;88.60;40.10;;;;;;;-3.69;100.00;102517.33;112767;1249;22513;-52
2024/01/30 06:56:48;;;;;;;75.80;37.70;;;;;;;-3.53;100.00;102517.05;112614;1239;22657;-51
2024/01/30 06:59:15;;;;;;;65.40;30.50;;;;;;;-3.38;100.00;102518.59;112715;1241;22421;-52
2024/01/30 07:01:42;;;;;;;70.20;32.40;;;;;;;-3.27;100.00;102519.09;112867;1249;22902;-51
2024/01/30 07:04:09;;;;;;;81.50;36.60;;;;;;;-3.14;100.00;102520.26;112828;1239;22547;-51
2024/01/30 07:06:37;;;;;;;74.10;36.60;;;;;;;-2.99;100.00;102517.25;112895;1249;22392;-46
2024/01/30 07:09:13;;;;;;;70.50;36.00;;;;;;;-2.81;100.00;102515.38;112744;1247;23134;-52
2024/01/30 07:11:42;;;;;;;81.70;39.00;;;;;;;-2.65;100.00;102515.30;112900;1243;22377;-53
2024/01/30 07:14:14;;;;;;;72.80;34.00;;;;;;;-2.46;100.00;102520.34;112913;1246;22412;-52
2024/01/30 07:21:00;;;;;;;52.80;24.90;;;;;;;-2.13;100.00;102518.45;112511;1249;22370;-46
2024/01/30 07:23:41;;;;;;;;;;;;;;;-2.07;100.00;102521.16;112755;1240;22403;-47
2024/01/30 07:26:09;;;;;;;44.20;22.50;;;;;;;-2.01;100.00;102521.66;112605;1239;22364;-51
2024/01/30 07:28:53;;;;;;;49.10;23.10;;;;;;;-1.95;100.00;102527.16;112543;1245;23218;-46
2024/01/30 07:31:23;;;;;;;44.90;22.90;;;;;;;-1.86;100.00;102519.24;112747;1239;22810;-52
2024/01/30 07:33:49;;;;;;;45.90;23.60;;;;;;;-1.74;100.00;102509.13;112710;1239;23088;-52
2024/01/30 07:36:16;;;;;;;47.40;24.00;;;;;;;-1.62;100.00;102504.81;112810;1237;22297;-48
2024/01/30 07:39:13;;;;;;;48.90;25.90;;;;;;;-1.47;100.00;102507.79;112805;1249;22861;-48
2024/01/30 07:41:40;;;;;;;47.30;25.20;;;;;;;-1.32;100.00;102505.94;112883;1249;22838;-53
2024/01/30 07:44:07;;;;;;;40.20;22.60;;;;;;;-1.17;100.00;102503.08;112893;1244;22428;-52
2024/01/30 07:46:34;;;;;;;36.90;19.70;;;;;;;-1.02;100.00;102496.57;112715;1246;189872;-52
2024/01/30 07:49:01;;;;;;;28.10;15.00;;;;;;;-0.88;100.00;102493.48;112797;1246;23170;-52
2024/01/30 07:51:31;;;;;;;18.50;11.10;;;;;;;-0.72;100.00;102494.60;112837;1236;22420;-46
2024/01/30 07:53:58;;;;;;;21.70;12.00;;;;;;;-0.59;100.00;102491.52;112923;1249;22259;-47
2024/01/30 07:56:25;;;;;;;21.70;12.60;;;;;;;-0.52;100.00;102488.99;112931;1238;23098;-53
2024/01/30 07:58:51;;;;;;;19.10;11.70;;;;;;;-0.44;100.00;102482.24;112917;1239;22361;-53
2024/01/30 08:01:18;;;;;;;20.20;12.40;;;;;;;-0.37;100.00;102485.36;112949;1243;22395;-53
2024/01/30 08:03:45;;;;;;;18.70;10.40;;;;;;;-0.31;100.00;102486.05;112899;1249;22430;-53
2024/01/30 08:06:12;;;;;;;17.40;11.10;;;;;;;-0.23;100.00;102486.66;112870;1246;22428;-46
2024/01/30 08:08:39;;;;;;;16.40;10.50;;;;;;;-0.15;100.00;102485.41;112820;1246;22262;-46
2024/01/30 08:11:14;;;;;;;19.90;12.00;;;;;;;-0.11;100.00;102485.89;112818;1249;22320;-52
2024/01/30 08:13:52;;;;;;;16.20;10.00;;;;;;;-0.08;100.00;102481.87;112521;1245;22428;-47
2024/01/30 08:16:25;;;;;;;17.50;11.00;;;;;;;-0.00;100.00;102486.35;112709;1249;22436;-52
2024/01/30 08:18:57;;;;;;;19.60;11.70;;;;;;;0.05;100.00;102484.89;112695;1236;22575;-47
2024/01/30 08:21:30;;;;;;;16.40;9.90;;;;;;;0.14;100.00;102480.92;112638;1239;23054;-51
2024/01/30 08:23:58;;;;;;;16.00;9.80;;;;;;;0.23;100.00;102478.20;112749;1240;22388;-47
2024/01/30 08:26:26;;;;;;;15.70;10.40;;;;;;;0.31;100.00;102479.52;112737;1246;22249;-52
2024/01/30 08:28:53;;;;;;;14.50;9.90;;;;;;;0.39;100.00;102476.64;112728;1249;22393;-47
2024/01/30 08:31:20;;;;;;;12.90;8.40;;;;;;;0.47;100.00;102469.34;112750;1249;22719;-53
2024/01/30 08:33:47;;;;;;;13.60;8.30;;;;;;;0.56;100.00;102468.85;112723;1249;22280;-52
2024/01/30 08:36:16;;;;;;;10.90;7.50;;;;;;;0.65;100.00;102465.16;112761;1246;22387;-53
2024/01/30 08:38:43;;;;;;;10.50;6.90;;;;;;;0.70;100.00;102469.38;112742;1237;22252;-47
2024/01/30 08:41:10;;;;;;;11.70;7.40;;;;;;;0.79;100.00;102468.81;112756;1249;22971;-52
2024/01/30 08:43:37;;;;;;;21.60;11.40;;;;;;;0.87;100.00;102472.15;112777;1239;22254;-52
2024/01/30 08:46:04;;;;;;;14.40;9.00;;;;;;;0.95;100.00;102472.40;112766;1249;23202;-53
2024/01/30 08:48:31;;;;;;;14.80;9.00;;;;;;;0.99;100.00;102470.67;112840;1239;22183;-47
2024/01/30 08:50:58;;;;;;;15.50;10.00;;;;;;;1.02;100.00;102467.98;112927;1249;23212;-53
2024/01/30 08:53:25;;;;;;;11.30;7.90;;;;;;;1.05;100.00;102470.08;112915;1249;22568;-53
2024/01/30 08:55:52;;;;;;;12.90;9.10;;;;;;;1.06;100.00;102463.10;112936;1236;22151;-46
2024/01/30 08:58:19;;;;;;;20.30;10.70;;;;;;;1.07;100.00;102464.02;112911;1249;22415;-52
2024/01/30 09:00:46;;;;;;;30.40;12.50;;;;;;;1.09;100.00;102458.77;112869;1249;22264;-53
2024/01/30 09:03:13;;;;;;;14.20;8.60;;;;;;;1.08;100.00;102458.58;112664;1249;23009;-47
2024/01/30 09:05:41;;;;;;;14.00;8.00;;;;;;;1.11;100.00;102450.89;112892;1234;22436;-52
2024/01/30 09:08:08;;;;;;;22.40;8.80;;;;;;;1.15;100.00;102443.27;112777;1249;22999;-51
2024/01/30 09:10:35;;;;;;;12.60;7.30;;;;;;;1.18;99.95;102446.77;112683;1246;22413;-46
2024/01/30 09:13:03;;;;;;;13.40;7.80;;;;;;;1.21;99.93;102442.52;112797;1249;23280;-48
2024/01/30 09:15:32;;;;;;;18.00;10.50;;;;;;;1.27;99.89;102444.63;112779;1249;22906;-52
2024/01/30 09:17:58;;;;;;;16.30;9.50;;;;;;;1.33;99.90;102441.16;112763;1248;23242;-50
2024/01/30 09:20:25;;;;;;;12.10;8.20;;;;;;;1.37;98.78;102435.20;112775;1249;23043;-51
2024/01/30 09:22:52;;;;;;;11.90;7.60;;;;;;;1.36;98.39;102430.52;112875;1249;22465;-52
2024/01/30 09:25:19;;;;;;;16.00;9.20;;;;;;;1.41;98.14;102432.25;112890;1249;22252;-52
2024/01/30 09:27:47;;;;;;;11.70;8.30;;;;;;;1.48;98.02;102436.54;112959;1249;22398;-47
2024/01/30 09:30:15;;;;;;;14.80;8.90;;;;;;;1.54;97.29;102434.52;112653;1242;22337;-47
2024/01/30 09:32:43;;;;;;;16.30;8.90;;;;;;;1.59;97.55;102430.23;112924;1249;23345;-47
2024/01/30 09:35:13;;;;;;;13.60;8.90;;;;;;;1.63;97.27;102430.48;112882;1249;22172;-47
2024/01/30 09:37:43;;;;;;;12.40;8.20;;;;;;;1.68;97.15;102431.69;112529;1249;22363;-52
2024/01/30 09:40:10;;;;;;;13.20;8.50;;;;;;;1.73;96.89;102430.67;112938;1238;22403;-52
2024/01/30 09:42:38;;;;;;;13.00;8.70;;;;;;;1.78;96.97;102428.27;112729;1249;22403;-46
2024/01/30 09:45:05;;;;;;;17.70;9.60;;;;;;;1.80;96.81;102420.33;112899;1249;22358;-51
2024/01/30 09:47:43;;;;;;;14.00;8.50;;;;;;;1.83;96.45;102420.39;112921;1249;22467;-52
2024/01/30 09:50:11;;;;;;;17.50;9.80;;;;;;;1.85;96.03;102418.49;112900;1249;22433;-51
2024/01/30 09:52:40;;;;;;;15.50;9.60;;;;;;;1.88;96.11;102408.18;112918;1249;22406;-51
2024/01/30 09:55:07;;;;;;;16.70;9.20;;;;;;;1.93;96.41;102408.65;112924;1249;23005;-52
2024/01/30 09:57:34;;;;;;;12.90;8.90;;;;;;;1.96;96.12;102411.96;112986;1249;23196;-53
2024/01/30 10:00:04;;;;;;;13.50;8.40;;;;;;;1.95;95.07;102405.00;112779;1249;23229;-52
2024/01/30 10:02:38;;;;;;;16.00;9.20;;;;;;;1.86;94.35;102395.64;112757;1249;22738;-53
2024/01/30 10:05:05;;;;;;;16.50;9.50;;;;;;;1.77;94.18;102396.02;112491;1249;22364;-52
2024/01/30 10:07:34;;;;;;;14.50;8.90;;;;;;;1.72;94.49;102393.61;112821;1249;22377;-53
2024/01/30 10:10:01;;;;;;;15.50;9.50;;;;;;;1.73;94.26;102394.19;112822;1246;22398;-48
2024/01/30 10:12:29;;;;;;;15.50;9.40;;;;;;;1.77;94.23;102390.86;112813;1249;22205;-46
2024/01/30 10:14:57;;;;;;;13.20;9.20;;;;;;;1.87;94.87;102380.89;112618;1249;23242;-47
2024/01/30 10:17:25;;;;;;;15.70;8.20;;;;;;;2.05;94.78;102378.56;112484;1249;22461;-52
2024/01/30 10:20:00;;;;;;;12.40;8.00;;;;;;;2.29;93.83;102375.63;112693;1249;23298;-52
2024/01/30 10:55:44;;;;;;;9.60;7.00;;;;;;;6.15;73.86;102313.69;112921;1249;22787;-48
2024/01/30 11:07:59;;;;;;;10.50;7.50;;;;;;;6.85;71.49;102303.40;112662;1249;22568;-47
2024/01/30 11:11:37;;;;;;;12.20;8.20;;;;;;;7.01;71.91;102300.83;112651;1249;22425;-46
2024/01/30 11:14:29;;;;;;;;;;;;;;;7.34;70.03;102301.84;112865;1249;22407;-46
2024/01/30 11:17:05;;;;;;;18.60;9.40;;;;;;;7.44;69.97;102292.91;112899;1241;22391;-48
2024/01/30 11:24:15;;;;;;;7.50;5.60;;;;;;;7.43;66.66;102290.95;112947;1249;22264;-48
2024/01/30 11:27:01;;;;;;;7.80;5.90;;;;;;;7.45;66.86;102286.35;112814;1249;22797;-51
2024/01/30 11:29:30;;;;;;;11.50;6.80;;;;;;;7.61;66.88;102277.15;112577;1249;22367;-52
2024/01/30 11:31:57;;;;;;;8.60;6.30;;;;;;;7.77;66.56;102274.54;112858;1249;23070;-47
2024/01/30 11:34:26;;;;;;;8.50;6.40;;;;;;;7.90;66.63;102275.45;112850;1236;22415;-46
2024/01/30 11:37:01;;;;;;;10.30;7.10;;;;;;;8.13;66.61;102272.58;112493;1249;22797;-52
2024/01/30 11:39:31;;;;;;;7.30;6.10;;;;;;;8.34;65.11;102271.89;112875;1249;22377;-46
2024/01/30 11:41:59;;;;;;;6.40;5.40;;;;;;;8.41;64.39;102268.73;112853;1244;22283;-51
2024/01/30 11:44:26;;;;;;;7.40;5.80;;;;;;;8.41;65.02;102269.73;112777;1249;22279;-51
2024/01/30 11:46:56;;;;;;;9.50;6.40;;;;;;;8.49;65.42;102263.10;112959;1249;22892;-52
2024/01/30 11:49:27;;;;;;;8.70;6.00;;;;;;;8.61;64.52;102265.65;112627;1249;22389;-52
2024/01/30 11:51:56;;;;;;;9.00;5.90;;;;;;;8.56;63.57;102260.07;112972;1249;22502;-57
2024/01/30 11:54:25;;;;;;;9.70;6.40;;;;;;;8.42;64.06;102256.57;112840;1249;22239;-47
2024/01/30 11:56:59;;;;;;;7.30;5.70;;;;;;;8.36;63.98;102256.17;112751;1249;23240;-48
2024/01/30 11:59:26;;;;;;;7.00;5.50;;;;;;;8.37;63.94;102252.15;112946;1249;22427;-52
2024/01/30 12:02:04;;;;;;;7.70;5.60;;;;;;;8.40;63.20;102255.08;112526;1249;22501;-52
2024/01/30 12:04:35;;;;;;;8.10;6.30;;;;;;;8.25;63.13;102255.16;112556;1247;22321;-47
2024/01/30 12:07:15;;;;;;;11.00;7.30;;;;;;;8.09;63.87;102258.14;112268;1249;22415;-48
2024/01/30 12:09:56;;;;;;;8.20;6.00;;;;;;;7.93;64.27;102254.71;112404;1249;23369;-47
2024/01/30 12:12:34;;;;;;;9.40;6.60;;;;;;;7.70;64.40;102253.55;112516;1249;22488;-47
2024/01/30 12:15:21;;;;;;;8.10;6.00;;;;;;;7.51;66.19;102249.27;112223;1241;22264;-48
2024/01/30 12:18:38;;;;;;;11.80;6.10;;;;;;;7.65;66.08;102252.13;112479;1249;22792;-46
2024/01/30 12:21:56;;;;;;;;;;;;;;;7.72;64.55;102244.29;112691;1249;23144;-52
2024/01/30 12:24:35;;;;;;;8.60;6.10;;;;;;;7.57;65.04;102241.52;112696;1249;22548;-51
2024/01/30 12:27:04;;;;;;;9.00;6.00;;;;;;;7.29;65.60;102242.23;112683;1249;22681;-51
2024/01/30 12:29:33;;;;;;;10.00;6.80;;;;;;;7.10;65.96;102242.94;112642;1249;22386;-47
2024/01/30 12:32:05;;;;;;;7.90;5.30;;;;;;;7.11;65.86;102235.36;112648;1249;22368;-46
2024/01/30 12:34:33;;;;;;;11.40;7.00;;;;;;;7.37;65.90;102235.80;112920;1249;22393;-57
2024/01/30 12:37:21;;;;;;;10.80;6.50;;;;;;;7.86;65.08;102233.90;112465;1249;22348;-51
2024/01/30 12:39:48;;;;;;;8.60;6.30;;;;;;;8.08;63.88;102234.47;112786;1249;22422;-51
2024/01/30 12:42:15;;;;;;;8.00;5.70;;;;;;;7.97;63.90;102226.71;112787;1249;22401;-53
2024/01/30 12:44:42;;;;;;;9.20;6.50;;;;;;;7.85;64.40;102228.84;112779;1249;22419;-50
2024/01/30 12:47:10;;;;;;;8.40;6.20;;;;;;;7.77;64.78;102229.70;112793;1249;23426;-52
2024/01/30 12:49:37;;;;;;;10.00;6.50;;;;;;;7.69;65.39;102230.58;112876;1249;22876;-51
2024/01/30 12:52:04;;;;;;;8.60;5.80;;;;;;;7.69;65.76;102228.33;112817;1249;22965;-53
2024/01/30 12:54:31;;;;;;;6.40;4.80;;;;;;;7.63;65.92;102221.11;112751;1239;22397;-55
2024/01/30 12:56:58;;;;;;;5.90;5.00;;;;;;;7.52;65.83;102216.64;112654;1249;22903;-47
2024/01/30 12:59:25;;;;;;;7.90;5.80;;;;;;;7.41;65.91;102218.27;112686;1249;22891;-47
2024/01/30 13:01:52;;;;;;;7.60;5.90;;;;;;;7.19;65.76;102214.88;112719;1249;22366;-47
2024/01/30 13:04:19;;;;;;;11.00;6.90;;;;;;;6.87;66.72;102213.61;112704;1249;22746;-52
2024/01/30 13:06:47;;;;;;;9.00;6.20;;;;;;;6.44;67.55;102213.90;112704;1249;22702;-47
2024/01/30 13:09:14;;;;;;;9.50;6.60;;;;;;;6.02;68.66;102206.81;112488;1249;22442;-52
2024/01/30 13:11:41;;;;;;;12.40;7.10;;;;;;;5.80;69.58;102201.56;112674;1249;22232;-47
2024/01/30 13:14:08;;;;;;;9.10;5.90;;;;;;;5.76;70.29;102198.09;112531;1249;22540;-47
2024/01/30 13:16:36;;;;;;;8.40;6.00;;;;;;;5.77;70.72;102197.79;112656;1249;22391;-46
2024/01/30 13:19:02;;;;;;;10.00;6.30;;;;;;;5.92;71.06;102197.32;112500;1249;22605;-46
2024/01/30 13:21:30;;;;;;;10.10;6.90;;;;;;;6.30;71.07;102194.48;112754;1249;22352;-46
2024/01/30 13:23:57;;;;;;;13.00;6.70;;;;;;;6.66;70.05;102195.49;112841;1249;22393;-52
2024/01/30 13:26:25;;;;;;;11.80;7.50;;;;;;;6.75;69.43;102192.63;112820;1249;22945;-47
2024/01/30 13:28:52;;;;;;;14.40;9.00;;;;;;;6.63;69.67;102193.08;112657;1249;23039;-47
2024/01/30 13:32:54;;;;;;;11.70;7.70;;;;;;;6.18;69.73;102197.90;106015;1311;545799;-50
2024/01/30 13:35:21;;;;;;;8.90;6.20;;;;;;;5.76;70.42;102194.61;109332;1289;22578;-51
2024/01/30 13:37:49;;;;;;;10.20;6.60;;;;;;;5.44;71.55;102190.05;109247;1289;22401;-51
2024/01/30 13:40:17;;;;;;;11.90;7.30;;;;;;;5.32;72.82;102196.04;109394;1289;22677;-50
2024/01/30 13:42:45;;;;;;;11.40;7.40;;;;;;;5.31;73.12;102196.84;109454;1289;23247;-50
2024/01/30 13:45:13;;;;;;;14.90;7.90;;;;;;;5.10;72.90;102198.86;107490;1289;22336;-50
2024/01/30 13:47:40;;;;;;;10.60;7.40;;;;;;;4.79;73.42;102200.50;109476;1287;173181;-50
2024/01/30 13:50:10;;;;;;;10.80;6.90;;;;;;;4.49;74.68;102192.64;108488;1287;22537;-50
2024/01/30 13:52:38;;;;;;;9.90;6.80;;;;;;;4.22;75.59;102192.39;108488;1264;22391;-47
2024/01/30 13:55:11;;;;;;;9.00;6.50;;;;;;;4.05;76.81;102192.29;108673;1287;22536;-49
2024/01/30 13:57:39;;;;;;;13.60;6.90;;;;;;;3.94;78.00;102191.65;107863;1279;24173;-46
2024/01/30 14:00:07;;;;;;;10.50;7.60;;;;;;;3.90;78.22;102189.17;108411;1280;22205;-45
2024/01/30 14:02:41;;;;;;;11.40;8.00;;;;;;;3.89;78.66;102190.02;108395;1279;23909;-47
2024/01/30 14:05:09;;;;;;;13.10;7.70;;;;;;;3.84;79.48;102190.08;107468;1279;22526;-44
2024/01/30 14:07:39;;;;;;;12.50;7.50;;;;;;;3.74;80.01;102187.08;107216;1279;25240;-48
2024/01/30 14:10:07;;;;;;;13.00;7.60;;;;;;;3.63;80.82;102191.40;108229;1279;22524;-49
2024/01/30 14:12:39;;;;;;;12.10;7.80;;;;;;;3.53;81.46;102192.20;109581;1279;22620;-49
2024/01/30 14:15:07;;;;;;;11.70;7.70;;;;;;;3.52;82.28;102188.55;108894;1279;22679;-51
2024/01/30 14:17:50;;;;;;;11.20;7.70;;;;;;;3.60;82.79;102183.66;108332;1279;22529;-49
2024/01/30 14:20:17;;;;;;;13.50;9.10;;;;;;;3.66;82.97;102184.52;109040;1279;22582;-49
2024/01/30 14:22:45;;;;;;;15.10;8.30;;;;;;;3.68;83.10;102183.11;108945;1279;25531;-51
2024/01/30 14:25:13;;;;;;;13.90;9.10;;;;;;;3.74;83.13;102182.73;107899;1279;23365;-48
2024/01/30 14:27:41;;;;;;;9.80;7.00;;;;;;;3.75;82.99;102184.52;107877;1272;22506;-51
2024/01/30 14:30:12;;;;;;;11.30;7.70;;;;;;;3.68;82.98;102185.72;108545;1279;22543;-49
2024/01/30 14:32:40;;;;;;;16.40;8.90;;;;;;;3.58;83.10;102189.58;109636;1279;22496;-51
2024/01/30 14:35:08;;;;;;;15.20;10.10;;;;;;;3.54;83.60;102189.38;108779;1279;22523;-50
2024/01/30 14:37:37;;;;;;;15.80;11.40;;;;;;;3.53;83.45;102190.29;106782;1280;23102;-50
2024/01/30 14:40:08;;;;;;;20.80;11.90;;;;;;;3.43;83.60;102189.90;106904;1279;24274;-55
2024/01/30 14:42:37;;;;;;;19.40;11.50;;;;;;;3.31;83.91;102189.91;107331;1280;26097;-56
2024/01/30 14:45:05;;;;;;;20.90;13.40;;;;;;;3.20;84.46;102186.27;109957;1279;22384;-48
2024/01/30 14:47:34;;;;;;;24.60;15.70;;;;;;;3.08;85.21;102185.41;110096;1279;23223;-48
2024/01/30 14:50:02;;;;;;;28.00;16.80;;;;;;;2.96;85.58;102182.11;109308;1279;24189;-48
2024/01/30 14:52:33;;;;;;;40.40;23.10;;;;;;;2.83;86.34;102180.95;108699;1272;22552;-48
2024/01/30 14:55:00;;;;;;;34.90;19.70;;;;;;;2.72;86.88;102178.72;108209;1272;23189;-47
2024/01/30 14:57:28;;;;;;;27.70;16.70;;;;;;;2.63;87.58;102182.34;109208;1278;22528;-51
2024/01/30 14:59:57;;;;;;;56.40;34.10;;;;;;;2.55;87.98;102181.82;107392;1279;24197;-48
2024/01/30 15:02:25;;;;;;;69.60;44.80;;;;;;;2.47;88.45;102184.91;107436;1278;22536;-48
2024/01/30 15:04:52;;;;;;;45.80;29.50;;;;;;;2.37;89.19;102184.30;107782;1278;25234;-47
2024/01/30 15:07:20;;;;;;;44.60;28.50;;;;;;;2.27;89.64;102186.74;107797;1278;22321;-47
2024/01/30 15:10:00;;;;;;;26.70;16.90;;;;;;;2.16;90.30;102186.73;107048;1278;24220;-48
2024/01/30 15:12:28;;;;;;;27.30;15.20;;;;;;;2.05;90.77;102188.45;108361;1279;23322;-47
2024/01/30 15:14:56;;;;;;;22.60;15.00;;;;;;;1.95;91.29;102186.45;107373;1279;22229;-48
2024/01/30 15:17:24;;;;;;;25.10;15.60;;;;;;;1.87;92.08;102181.59;107207;1278;22541;-49
2024/01/30 15:19:51;;;;;;;23.80;15.40;;;;;;;1.81;92.85;102189.80;107111;1278;23935;-50
2024/01/30 15:22:20;;;;;;;29.50;18.60;;;;;;;1.74;93.37;102185.97;107802;1278;25231;-49
2024/01/30 15:24:47;;;;;;;28.20;16.50;;;;;;;1.66;94.00;102189.32;107587;1278;22526;-48
